sensor_id;sensor_type;location;lat;lon;timestamp;P1;durP1;ratioP1;P2;durP2;ratioP2
19547;SDS011;9919;58.014;11.826;2023-04-07T00:00:52;0.82;;;0.82;;
19547;SDS011;9919;58.014;11.826;2023-04-07T00:02:53;1.08;;;1.08;;
19547;SDS011;9919;58.014;11.826;2023-04-07T00:04:55;0.60;;;0.60;;
19547;SDS011;9919;58.014;11.826;2023-04-07T00:06:57;0.73;;;0.73;;
19547;SDS011;9919;58.014;11.826;2023-04-07T00:08:59;0.80;;;0.80;;
19547;SDS011;9919;58.014;11.826;2023-04-07T00:11:01;0.90;;;0.90;;
19547;SDS011;9919;58.014;11.826;2023-04-07T00:13:02;0.60;;;0.60;;
19547;SDS011;9919;58.014;11.826;2023-04-07T00:15:04;0.70;;;0.70;;
19547;SDS011;9919;58.014;11.826;2023-04-07T00:17:06;0.55;;;0.55;;
19547;SDS011;9919;58.014;11.826;2023-04-07T00:19:07;1.23;;;0.70;;
19547;SDS011;9919;58.014;11.826;2023-04-07T00:21:09;0.80;;;0.80;;
19547;SDS011;9919;58.014;11.826;2023-04-07T00:23:10;0.60;;;0.60;;
19547;SDS011;9919;58.014;11.826;2023-04-07T00:25:11;0.75;;;0.75;;
19547;SDS011;9919;58.014;11.826;2023-04-07T00:27:13;0.68;;;0.65;;
19547;SDS011;9919;58.014;11.826;2023-04-07T00:29:14;0.60;;;0.60;;
19547;SDS011;9919;58.014;11.826;2023-04-07T00:31:15;1.58;;;0.73;;
19547;SDS011;9919;58.014;11.826;2023-04-07T00:33:17;0.70;;;0.70;;
19547;SDS011;9919;58.014;11.826;2023-04-07T00:35:18;0.77;;;0.77;;
19547;SDS011;9919;58.014;11.826;2023-04-07T00:37:20;1.02;;;0.82;;
19547;SDS011;9919;58.014;11.826;2023-04-07T00:39:21;0.93;;;0.82;;
19547;SDS011;9919;58.014;11.826;2023-04-07T00:41:23;0.70;;;0.70;;
19547;SDS011;9919;58.014;11.826;2023-04-07T00:43:25;1.52;;;0.93;;
19547;SDS011;9919;58.014;11.826;2023-04-07T00:45:26;0.70;;;0.70;;
19547;SDS011;9919;58.014;11.826;2023-04-07T00:47:28;0.85;;;0.85;;
19547;SDS011;9919;58.014;11.826;2023-04-07T00:49:30;0.82;;;0.70;;
19547;SDS011;9919;58.014;11.826;2023-04-07T00:51:31;0.90;;;0.90;;
19547;SDS011;9919;58.014;11.826;2023-04-07T00:53:32;0.85;;;0.70;;
19547;SDS011;9919;58.014;11.826;2023-04-07T00:55:34;1.08;;;1.08;;
19547;SDS011;9919;58.014;11.826;2023-04-07T00:57:35;0.80;;;0.80;;
19547;SDS011;9919;58.014;11.826;2023-04-07T00:59:36;0.80;;;0.80;;
19547;SDS011;9919;58.014;11.826;2023-04-07T01:01:46;0.60;;;0.60;;
19547;SDS011;9919;58.014;11.826;2023-04-07T01:04:18;0.63;;;0.63;;
19547;SDS011;9919;58.014;11.826;2023-04-07T01:06:37;0.70;;;0.70;;
19547;SDS011;9919;58.014;11.826;2023-04-07T01:08:50;0.65;;;0.52;;
19547;SDS011;9919;58.014;11.826;2023-04-07T01:10:57;0.60;;;0.60;;
19547;SDS011;9919;58.014;11.826;2023-04-07T01:15:32;1.40;;;0.90;;
19547;SDS011;9919;58.014;11.826;2023-04-07T01:17:36;0.80;;;0.80;;
19547;SDS011;9919;58.014;11.826;2023-04-07T01:19:51;0.80;;;0.80;;
19547;SDS011;9919;58.014;11.826;2023-04-07T01:22:02;0.88;;;0.88;;
19547;SDS011;9919;58.014;11.826;2023-04-07T01:26:31;1.13;;;1.02;;
19547;SDS011;9919;58.014;11.826;2023-04-07T01:30:44;0.73;;;0.73;;
19547;SDS011;9919;58.014;11.826;2023-04-07T01:32:46;1.10;;;0.82;;
19547;SDS011;9919;58.014;11.826;2023-04-07T01:34:50;0.98;;;0.90;;
19547;SDS011;9919;58.014;11.826;2023-04-07T01:36:53;0.80;;;0.80;;
19547;SDS011;9919;58.014;11.826;2023-04-07T01:38:55;0.50;;;0.50;;
19547;SDS011;9919;58.014;11.826;2023-04-07T01:40:57;0.85;;;0.85;;
19547;SDS011;9919;58.014;11.826;2023-04-07T01:42:59;0.65;;;0.65;;
19547;SDS011;9919;58.014;11.826;2023-04-07T01:45:02;0.80;;;0.80;;
19547;SDS011;9919;58.014;11.826;2023-04-07T01:47:03;0.73;;;0.73;;
19547;SDS011;9919;58.014;11.826;2023-04-07T01:49:05;0.55;;;0.52;;
19547;SDS011;9919;58.014;11.826;2023-04-07T01:51:07;0.75;;;0.75;;
19547;SDS011;9919;58.014;11.826;2023-04-07T01:53:10;1.90;;;0.98;;
19547;SDS011;9919;58.014;11.826;2023-04-07T01:55:13;1.88;;;0.90;;
19547;SDS011;9919;58.014;11.826;2023-04-07T01:57:14;0.82;;;0.82;;
19547;SDS011;9919;58.014;11.826;2023-04-07T01:59:15;1.08;;;0.85;;
19547;SDS011;9919;58.014;11.826;2023-04-07T02:01:17;0.93;;;0.80;;
19547;SDS011;9919;58.014;11.826;2023-04-07T02:03:34;0.75;;;0.75;;
19547;SDS011;9919;58.014;11.826;2023-04-07T02:05:43;0.88;;;0.88;;
19547;SDS011;9919;58.014;11.826;2023-04-07T02:07:47;0.93;;;0.88;;
19547;SDS011;9919;58.014;11.826;2023-04-07T02:09:50;2.13;;;0.50;;
19547;SDS011;9919;58.014;11.826;2023-04-07T02:11:57;0.77;;;0.70;;
19547;SDS011;9919;58.014;11.826;2023-04-07T02:14:00;0.60;;;0.60;;
19547;SDS011;9919;58.014;11.826;2023-04-07T02:16:03;0.68;;;0.68;;
19547;SDS011;9919;58.014;11.826;2023-04-07T02:18:06;0.68;;;0.68;;
19547;SDS011;9919;58.014;11.826;2023-04-07T02:20:10;0.65;;;0.63;;
19547;SDS011;9919;58.014;11.826;2023-04-07T02:22:12;0.90;;;0.90;;
19547;SDS011;9919;58.014;11.826;2023-04-07T02:24:13;0.82;;;0.82;;
19547;SDS011;9919;58.014;11.826;2023-04-07T02:26:20;0.35;;;0.35;;
19547;SDS011;9919;58.014;11.826;2023-04-07T02:28:24;0.63;;;0.63;;
19547;SDS011;9919;58.014;11.826;2023-04-07T02:30:26;0.80;;;0.68;;
19547;SDS011;9919;58.014;11.826;2023-04-07T02:32:27;0.70;;;0.70;;
19547;SDS011;9919;58.014;11.826;2023-04-07T02:34:29;0.60;;;0.60;;
19547;SDS011;9919;58.014;11.826;2023-04-07T02:36:30;0.68;;;0.68;;
19547;SDS011;9919;58.014;11.826;2023-04-07T02:38:31;0.80;;;0.80;;
19547;SDS011;9919;58.014;11.826;2023-04-07T02:40:33;0.60;;;0.60;;
19547;SDS011;9919;58.014;11.826;2023-04-07T02:42:35;0.60;;;0.60;;
19547;SDS011;9919;58.014;11.826;2023-04-07T02:44:37;0.45;;;0.45;;
19547;SDS011;9919;58.014;11.826;2023-04-07T02:46:38;0.60;;;0.60;;
19547;SDS011;9919;58.014;11.826;2023-04-07T02:48:40;1.45;;;1.00;;
19547;SDS011;9919;58.014;11.826;2023-04-07T02:50:41;1.45;;;0.75;;
19547;SDS011;9919;58.014;11.826;2023-04-07T02:52:43;0.52;;;0.52;;
19547;SDS011;9919;58.014;11.826;2023-04-07T02:54:44;1.13;;;1.10;;
19547;SDS011;9919;58.014;11.826;2023-04-07T02:56:46;0.50;;;0.50;;
19547;SDS011;9919;58.014;11.826;2023-04-07T02:58:47;2.22;;;0.80;;
19547;SDS011;9919;58.014;11.826;2023-04-07T03:00:48;1.00;;;0.93;;
19547;SDS011;9919;58.014;11.826;2023-04-07T03:02:50;1.25;;;0.68;;
19547;SDS011;9919;58.014;11.826;2023-04-07T03:04:51;0.98;;;0.98;;
19547;SDS011;9919;58.014;11.826;2023-04-07T03:06:53;0.85;;;0.85;;
19547;SDS011;9919;58.014;11.826;2023-04-07T03:08:55;1.30;;;1.20;;
19547;SDS011;9919;58.014;11.826;2023-04-07T03:10:57;0.63;;;0.60;;
19547;SDS011;9919;58.014;11.826;2023-04-07T03:12:58;1.10;;;1.00;;
19547;SDS011;9919;58.014;11.826;2023-04-07T03:14:59;0.80;;;0.80;;
19547;SDS011;9919;58.014;11.826;2023-04-07T03:17:02;0.77;;;0.77;;
19547;SDS011;9919;58.014;11.826;2023-04-07T03:19:03;0.70;;;0.70;;
19547;SDS011;9919;58.014;11.826;2023-04-07T03:21:05;0.95;;;0.95;;
19547;SDS011;9919;58.014;11.826;2023-04-07T03:23:06;1.05;;;0.80;;
19547;SDS011;9919;58.014;11.826;2023-04-07T03:25:09;1.08;;;0.95;;
19547;SDS011;9919;58.014;11.826;2023-04-07T03:27:11;0.80;;;0.80;;
19547;SDS011;9919;58.014;11.826;2023-04-07T03:29:12;0.52;;;0.52;;
19547;SDS011;9919;58.014;11.826;2023-04-07T03:31:14;0.80;;;0.80;;
19547;SDS011;9919;58.014;11.826;2023-04-07T03:33:15;0.60;;;0.60;;
19547;SDS011;9919;58.014;11.826;2023-04-07T03:35:16;1.10;;;0.98;;
19547;SDS011;9919;58.014;11.826;2023-04-07T03:37:19;0.82;;;0.80;;
19547;SDS011;9919;58.014;11.826;2023-04-07T03:39:20;2.38;;;1.00;;
19547;SDS011;9919;58.014;11.826;2023-04-07T03:41:22;1.15;;;1.00;;
19547;SDS011;9919;58.014;11.826;2023-04-07T03:43:23;1.08;;;0.80;;
19547;SDS011;9919;58.014;11.826;2023-04-07T03:45:25;0.80;;;0.80;;
19547;SDS011;9919;58.014;11.826;2023-04-07T03:47:26;0.80;;;0.80;;
19547;SDS011;9919;58.014;11.826;2023-04-07T03:49:28;1.27;;;0.63;;
19547;SDS011;9919;58.014;11.826;2023-04-07T03:51:30;0.65;;;0.65;;
19547;SDS011;9919;58.014;11.826;2023-04-07T03:53:33;0.60;;;0.60;;
19547;SDS011;9919;58.014;11.826;2023-04-07T03:55:35;0.50;;;0.50;;
19547;SDS011;9919;58.014;11.826;2023-04-07T03:57:37;0.55;;;0.55;;
19547;SDS011;9919;58.014;11.826;2023-04-07T03:59:38;1.02;;;0.77;;
19547;SDS011;9919;58.014;11.826;2023-04-07T04:01:40;1.38;;;1.30;;
19547;SDS011;9919;58.014;11.826;2023-04-07T04:03:42;0.88;;;0.80;;
19547;SDS011;9919;58.014;11.826;2023-04-07T04:05:43;0.80;;;0.80;;
19547;SDS011;9919;58.014;11.826;2023-04-07T04:07:45;0.82;;;0.82;;
19547;SDS011;9919;58.014;11.826;2023-04-07T04:09:46;1.13;;;0.95;;
19547;SDS011;9919;58.014;11.826;2023-04-07T04:11:48;0.70;;;0.70;;
19547;SDS011;9919;58.014;11.826;2023-04-07T04:13:50;0.98;;;0.90;;
19547;SDS011;9919;58.014;11.826;2023-04-07T04:15:51;0.60;;;0.57;;
19547;SDS011;9919;58.014;11.826;2023-04-07T04:17:52;0.73;;;0.73;;
19547;SDS011;9919;58.014;11.826;2023-04-07T04:19:54;1.35;;;0.80;;
19547;SDS011;9919;58.014;11.826;2023-04-07T04:21:55;1.02;;;0.82;;
19547;SDS011;9919;58.014;11.826;2023-04-07T04:23:56;1.23;;;1.13;;
19547;SDS011;9919;58.014;11.826;2023-04-07T04:25:59;0.50;;;0.50;;
19547;SDS011;9919;58.014;11.826;2023-04-07T04:28:02;0.60;;;0.60;;
19547;SDS011;9919;58.014;11.826;2023-04-07T04:30:05;0.70;;;0.70;;
19547;SDS011;9919;58.014;11.826;2023-04-07T04:32:07;0.60;;;0.60;;
19547;SDS011;9919;58.014;11.826;2023-04-07T04:34:09;1.85;;;0.70;;
19547;SDS011;9919;58.014;11.826;2023-04-07T04:36:10;1.50;;;0.95;;
19547;SDS011;9919;58.014;11.826;2023-04-07T04:38:12;0.80;;;0.80;;
19547;SDS011;9919;58.014;11.826;2023-04-07T04:40:14;0.70;;;0.70;;
19547;SDS011;9919;58.014;11.826;2023-04-07T04:42:16;0.75;;;0.73;;
19547;SDS011;9919;58.014;11.826;2023-04-07T04:44:17;0.82;;;0.73;;
19547;SDS011;9919;58.014;11.826;2023-04-07T04:46:18;0.50;;;0.50;;
19547;SDS011;9919;58.014;11.826;2023-04-07T04:48:20;0.70;;;0.70;;
19547;SDS011;9919;58.014;11.826;2023-04-07T04:50:21;0.60;;;0.60;;
19547;SDS011;9919;58.014;11.826;2023-04-07T04:52:24;0.77;;;0.50;;
19547;SDS011;9919;58.014;11.826;2023-04-07T04:54:26;0.65;;;0.63;;
19547;SDS011;9919;58.014;11.826;2023-04-07T04:56:27;0.93;;;0.93;;
19547;SDS011;9919;58.014;11.826;2023-04-07T04:58:28;0.80;;;0.80;;
19547;SDS011;9919;58.014;11.826;2023-04-07T05:00:30;0.47;;;0.47;;
19547;SDS011;9919;58.014;11.826;2023-04-07T05:02:32;1.02;;;0.80;;
19547;SDS011;9919;58.014;11.826;2023-04-07T05:04:33;0.82;;;0.82;;
19547;SDS011;9919;58.014;11.826;2023-04-07T05:06:35;0.85;;;0.85;;
19547;SDS011;9919;58.014;11.826;2023-04-07T05:08:37;0.45;;;0.40;;
19547;SDS011;9919;58.014;11.826;2023-04-07T05:10:39;1.38;;;0.57;;
19547;SDS011;9919;58.014;11.826;2023-04-07T05:12:41;0.60;;;0.60;;
19547;SDS011;9919;58.014;11.826;2023-04-07T05:14:42;1.23;;;0.73;;
19547;SDS011;9919;58.014;11.826;2023-04-07T05:16:43;0.82;;;0.70;;
19547;SDS011;9919;58.014;11.826;2023-04-07T05:18:45;0.65;;;0.65;;
19547;SDS011;9919;58.014;11.826;2023-04-07T05:20:47;1.58;;;1.10;;
19547;SDS011;9919;58.014;11.826;2023-04-07T05:22:49;0.70;;;0.70;;
19547;SDS011;9919;58.014;11.826;2023-04-07T05:24:50;0.80;;;0.80;;
19547;SDS011;9919;58.014;11.826;2023-04-07T05:26:51;1.15;;;1.05;;
19547;SDS011;9919;58.014;11.826;2023-04-07T05:28:56;1.10;;;0.82;;
19547;SDS011;9919;58.014;11.826;2023-04-07T05:30:57;1.25;;;0.85;;
19547;SDS011;9919;58.014;11.826;2023-04-07T05:33:00;1.63;;;0.80;;
19547;SDS011;9919;58.014;11.826;2023-04-07T05:35:01;0.70;;;0.70;;
19547;SDS011;9919;58.014;11.826;2023-04-07T05:37:03;0.50;;;0.50;;
19547;SDS011;9919;58.014;11.826;2023-04-07T05:39:05;0.50;;;0.50;;
19547;SDS011;9919;58.014;11.826;2023-04-07T05:41:06;0.60;;;0.60;;
19547;SDS011;9919;58.014;11.826;2023-04-07T05:43:08;0.80;;;0.80;;
19547;SDS011;9919;58.014;11.826;2023-04-07T05:45:09;0.77;;;0.77;;
19547;SDS011;9919;58.014;11.826;2023-04-07T05:47:11;1.15;;;1.00;;
19547;SDS011;9919;58.014;11.826;2023-04-07T05:49:13;0.68;;;0.68;;
19547;SDS011;9919;58.014;11.826;2023-04-07T05:51:14;1.00;;;0.90;;
19547;SDS011;9919;58.014;11.826;2023-04-07T05:53:16;0.63;;;0.63;;
19547;SDS011;9919;58.014;11.826;2023-04-07T05:55:18;0.60;;;0.60;;
19547;SDS011;9919;58.014;11.826;2023-04-07T05:57:20;1.48;;;1.00;;
19547;SDS011;9919;58.014;11.826;2023-04-07T05:59:21;0.98;;;0.95;;
19547;SDS011;9919;58.014;11.826;2023-04-07T06:01:23;0.80;;;0.80;;
19547;SDS011;9919;58.014;11.826;2023-04-07T06:03:25;1.02;;;0.82;;
19547;SDS011;9919;58.014;11.826;2023-04-07T06:05:26;0.93;;;0.90;;
19547;SDS011;9919;58.014;11.826;2023-04-07T06:07:27;0.70;;;0.70;;
19547;SDS011;9919;58.014;11.826;2023-04-07T06:09:29;1.35;;;1.02;;
19547;SDS011;9919;58.014;11.826;2023-04-07T06:11:30;1.20;;;1.10;;
19547;SDS011;9919;58.014;11.826;2023-04-07T06:13:32;0.60;;;0.60;;
19547;SDS011;9919;58.014;11.826;2023-04-07T06:15:33;0.45;;;0.45;;
19547;SDS011;9919;58.014;11.826;2023-04-07T06:17:35;0.80;;;0.80;;
19547;SDS011;9919;58.014;11.826;2023-04-07T06:19:36;0.60;;;0.52;;
19547;SDS011;9919;58.014;11.826;2023-04-07T06:21:38;0.90;;;0.90;;
19547;SDS011;9919;58.014;11.826;2023-04-07T06:23:40;0.98;;;0.90;;
19547;SDS011;9919;58.014;11.826;2023-04-07T06:25:41;1.15;;;0.80;;
19547;SDS011;9919;58.014;11.826;2023-04-07T06:27:43;0.70;;;0.63;;
19547;SDS011;9919;58.014;11.826;2023-04-07T06:29:45;0.80;;;0.80;;
19547;SDS011;9919;58.014;11.826;2023-04-07T06:31:46;0.80;;;0.80;;
19547;SDS011;9919;58.014;11.826;2023-04-07T06:33:48;0.60;;;0.60;;
19547;SDS011;9919;58.014;11.826;2023-04-07T06:35:49;0.73;;;0.73;;
19547;SDS011;9919;58.014;11.826;2023-04-07T06:37:51;2.08;;;0.90;;
19547;SDS011;9919;58.014;11.826;2023-04-07T06:39:52;2.50;;;0.90;;
19547;SDS011;9919;58.014;11.826;2023-04-07T06:41:53;0.70;;;0.70;;
19547;SDS011;9919;58.014;11.826;2023-04-07T06:43:56;0.50;;;0.50;;
19547;SDS011;9919;58.014;11.826;2023-04-07T06:45:58;0.63;;;0.63;;
19547;SDS011;9919;58.014;11.826;2023-04-07T06:48:00;1.23;;;0.68;;
19547;SDS011;9919;58.014;11.826;2023-04-07T06:50:02;0.80;;;0.80;;
19547;SDS011;9919;58.014;11.826;2023-04-07T06:52:04;0.60;;;0.60;;
19547;SDS011;9919;58.014;11.826;2023-04-07T06:54:06;0.45;;;0.45;;
19547;SDS011;9919;58.014;11.826;2023-04-07T06:56:11;0.57;;;0.57;;
19547;SDS011;9919;58.014;11.826;2023-04-07T06:58:13;0.50;;;0.50;;
19547;SDS011;9919;58.014;11.826;2023-04-07T07:00:15;0.60;;;0.60;;
19547;SDS011;9919;58.014;11.826;2023-04-07T07:02:17;1.23;;;0.82;;
19547;SDS011;9919;58.014;11.826;2023-04-07T07:04:19;1.00;;;0.60;;
19547;SDS011;9919;58.014;11.826;2023-04-07T07:06:20;0.73;;;0.57;;
19547;SDS011;9919;58.014;11.826;2023-04-07T07:08:22;1.15;;;1.08;;
19547;SDS011;9919;58.014;11.826;2023-04-07T07:10:23;0.32;;;0.30;;
19547;SDS011;9919;58.014;11.826;2023-04-07T07:12:25;0.47;;;0.47;;
19547;SDS011;9919;58.014;11.826;2023-04-07T07:14:26;1.05;;;1.05;;
19547;SDS011;9919;58.014;11.826;2023-04-07T07:16:28;1.17;;;0.75;;
19547;SDS011;9919;58.014;11.826;2023-04-07T07:18:29;0.90;;;0.90;;
19547;SDS011;9919;58.014;11.826;2023-04-07T07:20:31;2.42;;;0.90;;
19547;SDS011;9919;58.014;11.826;2023-04-07T07:22:32;0.50;;;0.50;;
19547;SDS011;9919;58.014;11.826;2023-04-07T07:24:33;0.80;;;0.80;;
19547;SDS011;9919;58.014;11.826;2023-04-07T07:26:35;0.50;;;0.50;;
19547;SDS011;9919;58.014;11.826;2023-04-07T07:28:37;0.98;;;0.88;;
19547;SDS011;9919;58.014;11.826;2023-04-07T07:30:40;0.68;;;0.68;;
19547;SDS011;9919;58.014;11.826;2023-04-07T07:32:41;0.60;;;0.60;;
19547;SDS011;9919;58.014;11.826;2023-04-07T07:34:43;0.60;;;0.60;;
19547;SDS011;9919;58.014;11.826;2023-04-07T07:36:44;0.60;;;0.60;;
19547;SDS011;9919;58.014;11.826;2023-04-07T07:38:46;1.00;;;0.90;;
19547;SDS011;9919;58.014;11.826;2023-04-07T07:40:49;3.40;;;0.98;;
19547;SDS011;9919;58.014;11.826;2023-04-07T07:42:50;0.75;;;0.75;;
19547;SDS011;9919;58.014;11.826;2023-04-07T07:44:51;1.17;;;0.63;;
19547;SDS011;9919;58.014;11.826;2023-04-07T07:46:53;0.88;;;0.88;;
19547;SDS011;9919;58.014;11.826;2023-04-07T07:48:54;0.60;;;0.60;;
19547;SDS011;9919;58.014;11.826;2023-04-07T07:50:55;0.82;;;0.80;;
19547;SDS011;9919;58.014;11.826;2023-04-07T07:52:57;0.60;;;0.60;;
19547;SDS011;9919;58.014;11.826;2023-04-07T07:54:59;1.05;;;0.70;;
19547;SDS011;9919;58.014;11.826;2023-04-07T07:57:00;0.90;;;0.90;;
19547;SDS011;9919;58.014;11.826;2023-04-07T07:59:02;0.75;;;0.73;;
19547;SDS011;9919;58.014;11.826;2023-04-07T08:01:07;0.73;;;0.73;;
19547;SDS011;9919;58.014;11.826;2023-04-07T08:03:08;1.38;;;1.13;;
19547;SDS011;9919;58.014;11.826;2023-04-07T08:05:10;0.95;;;0.82;;
19547;SDS011;9919;58.014;11.826;2023-04-07T08:07:11;0.47;;;0.47;;
19547;SDS011;9919;58.014;11.826;2023-04-07T08:09:13;0.60;;;0.60;;
19547;SDS011;9919;58.014;11.826;2023-04-07T08:11:14;0.65;;;0.65;;
19547;SDS011;9919;58.014;11.826;2023-04-07T08:13:16;1.65;;;0.68;;
19547;SDS011;9919;58.014;11.826;2023-04-07T08:15:17;0.82;;;0.82;;
19547;SDS011;9919;58.014;11.826;2023-04-07T08:17:18;0.98;;;0.77;;
19547;SDS011;9919;58.014;11.826;2023-04-07T08:19:20;5.10;;;1.23;;
19547;SDS011;9919;58.014;11.826;2023-04-07T08:21:22;6.97;;;1.13;;
19547;SDS011;9919;58.014;11.826;2023-04-07T08:23:25;0.80;;;0.80;;
19547;SDS011;9919;58.014;11.826;2023-04-07T08:25:27;0.57;;;0.57;;
19547;SDS011;9919;58.014;11.826;2023-04-07T08:27:28;0.70;;;0.70;;
19547;SDS011;9919;58.014;11.826;2023-04-07T08:29:30;0.73;;;0.65;;
19547;SDS011;9919;58.014;11.826;2023-04-07T08:31:32;0.50;;;0.50;;
19547;SDS011;9919;58.014;11.826;2023-04-07T08:33:34;0.77;;;0.77;;
19547;SDS011;9919;58.014;11.826;2023-04-07T08:35:35;0.95;;;0.73;;
19547;SDS011;9919;58.014;11.826;2023-04-07T08:37:37;1.17;;;0.75;;
19547;SDS011;9919;58.014;11.826;2023-04-07T08:39:40;0.57;;;0.57;;
19547;SDS011;9919;58.014;11.826;2023-04-07T08:41:41;0.50;;;0.50;;
19547;SDS011;9919;58.014;11.826;2023-04-07T08:43:44;1.38;;;0.60;;
19547;SDS011;9919;58.014;11.826;2023-04-07T08:45:48;4.70;;;1.08;;
19547;SDS011;9919;58.014;11.826;2023-04-07T08:47:52;8.00;;;1.40;;
19547;SDS011;9919;58.014;11.826;2023-04-07T08:50:02;1.73;;;0.73;;
19547;SDS011;9919;58.014;11.826;2023-04-07T08:52:05;0.82;;;0.82;;
19547;SDS011;9919;58.014;11.826;2023-04-07T08:54:09;2.53;;;1.27;;
19547;SDS011;9919;58.014;11.826;2023-04-07T08:56:12;6.47;;;0.82;;
19547;SDS011;9919;58.014;11.826;2023-04-07T08:58:15;0.50;;;0.50;;
19547;SDS011;9919;58.014;11.826;2023-04-07T09:00:17;5.25;;;0.82;;
19547;SDS011;9919;58.014;11.826;2023-04-07T09:02:18;1.27;;;1.05;;
19547;SDS011;9919;58.014;11.826;2023-04-07T09:04:20;4.07;;;1.20;;
19547;SDS011;9919;58.014;11.826;2023-04-07T09:06:23;4.03;;;0.98;;
19547;SDS011;9919;58.014;11.826;2023-04-07T09:08:26;4.28;;;0.90;;
19547;SDS011;9919;58.014;11.826;2023-04-07T09:10:27;3.92;;;1.30;;
19547;SDS011;9919;58.014;11.826;2023-04-07T09:12:30;1.23;;;0.75;;
19547;SDS011;9919;58.014;11.826;2023-04-07T09:14:31;1.17;;;0.93;;
19547;SDS011;9919;58.014;11.826;2023-04-07T09:16:33;0.85;;;0.75;;
19547;SDS011;9919;58.014;11.826;2023-04-07T09:18:35;0.70;;;0.70;;
19547;SDS011;9919;58.014;11.826;2023-04-07T09:23:08;2.80;;;0.82;;
19547;SDS011;9919;58.014;11.826;2023-04-07T09:25:31;0.77;;;0.77;;
19547;SDS011;9919;58.014;11.826;2023-04-07T09:27:33;0.50;;;0.50;;
19547;SDS011;9919;58.014;11.826;2023-04-07T09:29:34;1.15;;;1.02;;
19547;SDS011;9919;58.014;11.826;2023-04-07T09:31:44;1.42;;;0.68;;
19547;SDS011;9919;58.014;11.826;2023-04-07T09:33:49;1.38;;;1.05;;
19547;SDS011;9919;58.014;11.826;2023-04-07T09:35:51;1.15;;;1.10;;
19547;SDS011;9919;58.014;11.826;2023-04-07T09:40:07;2.03;;;0.82;;
19547;SDS011;9919;58.014;11.826;2023-04-07T09:42:08;2.65;;;1.30;;
19547;SDS011;9919;58.014;11.826;2023-04-07T09:44:10;0.77;;;0.77;;
19547;SDS011;9919;58.014;11.826;2023-04-07T09:46:15;0.77;;;0.77;;
19547;SDS011;9919;58.014;11.826;2023-04-07T09:48:18;1.30;;;0.90;;
19547;SDS011;9919;58.014;11.826;2023-04-07T09:50:33;1.13;;;0.60;;
19547;SDS011;9919;58.014;11.826;2023-04-07T09:52:47;1.00;;;0.65;;
19547;SDS011;9919;58.014;11.826;2023-04-07T09:54:53;1.33;;;0.80;;
19547;SDS011;9919;58.014;11.826;2023-04-07T09:56:55;0.77;;;0.77;;
19547;SDS011;9919;58.014;11.826;2023-04-07T09:58:58;5.40;;;0.80;;
19547;SDS011;9919;58.014;11.826;2023-04-07T10:00:59;1.80;;;0.82;;
19547;SDS011;9919;58.014;11.826;2023-04-07T10:03:01;1.00;;;0.70;;
19547;SDS011;9919;58.014;11.826;2023-04-07T10:05:03;0.77;;;0.77;;
19547;SDS011;9919;58.014;11.826;2023-04-07T10:07:05;0.90;;;0.90;;
19547;SDS011;9919;58.014;11.826;2023-04-07T10:09:06;0.80;;;0.80;;
19547;SDS011;9919;58.014;11.826;2023-04-07T10:11:09;1.85;;;0.93;;
19547;SDS011;9919;58.014;11.826;2023-04-07T10:13:11;0.90;;;0.90;;
19547;SDS011;9919;58.014;11.826;2023-04-07T10:15:13;4.70;;;0.70;;
19547;SDS011;9919;58.014;11.826;2023-04-07T10:17:15;0.63;;;0.63;;
19547;SDS011;9919;58.014;11.826;2023-04-07T10:19:19;1.23;;;1.02;;
19547;SDS011;9919;58.014;11.826;2023-04-07T10:21:21;2.85;;;0.85;;
19547;SDS011;9919;58.014;11.826;2023-04-07T10:25:48;0.73;;;0.73;;
19547;SDS011;9919;58.014;11.826;2023-04-07T10:27:53;1.95;;;0.80;;
19547;SDS011;9919;58.014;11.826;2023-04-07T10:29:59;1.30;;;1.00;;
19547;SDS011;9919;58.014;11.826;2023-04-07T10:32:03;3.20;;;0.70;;
19547;SDS011;9919;58.014;11.826;2023-04-07T10:34:04;0.68;;;0.68;;
19547;SDS011;9919;58.014;11.826;2023-04-07T10:36:06;2.45;;;0.93;;
19547;SDS011;9919;58.014;11.826;2023-04-07T10:38:08;1.77;;;0.90;;
19547;SDS011;9919;58.014;11.826;2023-04-07T10:47:00;0.70;;;0.65;;
19547;SDS011;9919;58.014;11.826;2023-04-07T10:49:09;0.77;;;0.77;;
19547;SDS011;9919;58.014;11.826;2023-04-07T10:51:12;0.88;;;0.70;;
19547;SDS011;9919;58.014;11.826;2023-04-07T10:53:14;0.98;;;0.70;;
19547;SDS011;9919;58.014;11.826;2023-04-07T10:57:30;1.02;;;0.82;;
19547;SDS011;9919;58.014;11.826;2023-04-07T10:59:32;0.82;;;0.82;;
19547;SDS011;9919;58.014;11.826;2023-04-07T11:01:34;3.83;;;0.85;;
19547;SDS011;9919;58.014;11.826;2023-04-07T11:03:36;7.00;;;0.90;;
19547;SDS011;9919;58.014;11.826;2023-04-07T11:05:40;5.47;;;0.68;;
19547;SDS011;9919;58.014;11.826;2023-04-07T11:07:43;0.85;;;0.85;;
19547;SDS011;9919;58.014;11.826;2023-04-07T11:10:07;3.00;;;1.00;;
19547;SDS011;9919;58.014;11.826;2023-04-07T11:12:23;2.25;;;0.68;;
19547;SDS011;9919;58.014;11.826;2023-04-07T11:14:26;11.00;;;1.65;;
19547;SDS011;9919;58.014;11.826;2023-04-07T11:16:40;22.10;;;2.63;;
19547;SDS011;9919;58.014;11.826;2023-04-07T11:18:43;4.72;;;1.58;;
19547;SDS011;9919;58.014;11.826;2023-04-07T11:20:50;4.68;;;1.30;;
19547;SDS011;9919;58.014;11.826;2023-04-07T11:23:02;10.50;;;2.50;;
19547;SDS011;9919;58.014;11.826;2023-04-07T11:25:04;2.35;;;0.88;;
19547;SDS011;9919;58.014;11.826;2023-04-07T11:27:22;10.07;;;1.23;;
19547;SDS011;9919;58.014;11.826;2023-04-07T11:29:29;11.18;;;1.60;;
19547;SDS011;9919;58.014;11.826;2023-04-07T11:31:31;6.90;;;1.33;;
19547;SDS011;9919;58.014;11.826;2023-04-07T11:33:33;7.55;;;1.35;;
19547;SDS011;9919;58.014;11.826;2023-04-07T11:35:36;0.90;;;0.90;;
19547;SDS011;9919;58.014;11.826;2023-04-07T11:37:37;7.93;;;1.45;;
19547;SDS011;9919;58.014;11.826;2023-04-07T11:39:38;8.25;;;1.45;;
19547;SDS011;9919;58.014;11.826;2023-04-07T11:41:44;6.30;;;1.58;;
19547;SDS011;9919;58.014;11.826;2023-04-07T11:43:46;7.95;;;1.50;;
19547;SDS011;9919;58.014;11.826;2023-04-07T11:46:02;12.43;;;2.38;;
19547;SDS011;9919;58.014;11.826;2023-04-07T11:48:24;10.95;;;1.80;;
19547;SDS011;9919;58.014;11.826;2023-04-07T11:50:41;29.70;;;3.90;;
19547;SDS011;9919;58.014;11.826;2023-04-07T11:52:44;11.88;;;3.00;;
19547;SDS011;9919;58.014;11.826;2023-04-07T11:54:47;11.60;;;2.67;;
19547;SDS011;9919;58.014;11.826;2023-04-07T11:56:52;17.85;;;2.88;;
19547;SDS011;9919;58.014;11.826;2023-04-07T11:58:55;14.43;;;2.15;;
19547;SDS011;9919;58.014;11.826;2023-04-07T12:01:00;5.95;;;2.08;;
19547;SDS011;9919;58.014;11.826;2023-04-07T12:03:08;22.27;;;2.63;;
19547;SDS011;9919;58.014;11.826;2023-04-07T12:05:12;8.27;;;1.92;;
19547;SDS011;9919;58.014;11.826;2023-04-07T12:07:14;15.75;;;2.20;;
19547;SDS011;9919;58.014;11.826;2023-04-07T12:09:29;7.38;;;1.80;;
19547;SDS011;9919;58.014;11.826;2023-04-07T12:11:31;16.55;;;2.25;;
19547;SDS011;9919;58.014;11.826;2023-04-07T12:13:33;6.05;;;2.50;;
19547;SDS011;9919;58.014;11.826;2023-04-07T12:15:35;5.13;;;1.90;;
19547;SDS011;9919;58.014;11.826;2023-04-07T12:17:37;17.95;;;2.47;;
19547;SDS011;9919;58.014;11.826;2023-04-07T12:19:42;5.65;;;2.03;;
19547;SDS011;9919;58.014;11.826;2023-04-07T12:21:44;14.93;;;2.13;;
19547;SDS011;9919;58.014;11.826;2023-04-07T12:23:46;12.60;;;1.98;;
19547;SDS011;9919;58.014;11.826;2023-04-07T12:25:47;16.23;;;1.98;;
19547;SDS011;9919;58.014;11.826;2023-04-07T12:27:48;16.08;;;2.20;;
19547;SDS011;9919;58.014;11.826;2023-04-07T12:29:50;4.78;;;1.65;;
19547;SDS011;9919;58.014;11.826;2023-04-07T12:31:52;12.38;;;1.90;;
19547;SDS011;9919;58.014;11.826;2023-04-07T12:33:53;16.15;;;2.03;;
19547;SDS011;9919;58.014;11.826;2023-04-07T12:35:56;15.77;;;2.10;;
19547;SDS011;9919;58.014;11.826;2023-04-07T12:37:57;14.98;;;2.22;;
19547;SDS011;9919;58.014;11.826;2023-04-07T12:39:59;10.95;;;1.77;;
19547;SDS011;9919;58.014;11.826;2023-04-07T12:42:01;5.40;;;1.45;;
19547;SDS011;9919;58.014;11.826;2023-04-07T12:44:02;8.27;;;1.80;;